sensor_id;sensor_type;location;lat;lon;timestamp;pressure;altitude;pressure_sealevel;temperature;humidity
56689;BME280;42565;53.342;-1.534;2023-02-17T00:01:26;98857.55;;;11.29;90.40
56689;BME280;42565;53.342;-1.534;2023-02-17T00:03:54;98849.06;;;11.29;89.81
56689;BME280;42565;53.342;-1.534;2023-02-17T00:06:23;98841.75;;;10.87;92.48
56689;BME280;42565;53.342;-1.534;2023-02-17T00:08:51;98833.23;;;10.55;94.65
56689;BME280;42565;53.342;-1.534;2023-02-17T00:11:19;98836.73;;;11.08;93.54
56689;BME280;42565;53.342;-1.534;2023-02-17T00:13:46;98834.30;;;9.98;96.84
56689;BME280;42565;53.342;-1.534;2023-02-17T00:16:17;98825.73;;;10.82;94.29
56689;BME280;42565;53.342;-1.534;2023-02-17T00:18:44;98826.39;;;11.32;90.36
56689;BME280;42565;53.342;-1.534;2023-02-17T00:21:14;98818.49;;;11.57;90.63
56689;BME280;42565;53.342;-1.534;2023-02-17T00:23:41;98819.88;;;11.29;89.78
56689;BME280;42565;53.342;-1.534;2023-02-17T00:26:09;98809.90;;;11.42;89.19
56689;BME280;42565;53.342;-1.534;2023-02-17T00:28:36;98799.52;;;10.91;91.50
56689;BME280;42565;53.342;-1.534;2023-02-17T00:31:07;98803.02;;;10.47;93.07
56689;BME280;42565;53.342;-1.534;2023-02-17T00:33:35;98801.08;;;10.13;96.01
56689;BME280;42565;53.342;-1.534;2023-02-17T00:36:04;98797.16;;;10.68;94.86
56689;BME280;42565;53.342;-1.534;2023-02-17T00:38:32;98799.70;;;10.63;93.96
56689;BME280;42565;53.342;-1.534;2023-02-17T00:41:00;98797.30;;;10.11;96.73
56689;BME280;42565;53.342;-1.534;2023-02-17T00:43:27;98806.36;;;10.59;93.98
56689;BME280;42565;53.342;-1.534;2023-02-17T00:45:54;98806.32;;;10.50;94.27
56689;BME280;42565;53.342;-1.534;2023-02-17T00:48:22;98802.57;;;11.01;93.13
56689;BME280;42565;53.342;-1.534;2023-02-17T00:50:49;98811.21;;;10.74;93.40
56689;BME280;42565;53.342;-1.534;2023-02-17T00:53:17;98817.40;;;10.26;95.79
56689;BME280;42565;53.342;-1.534;2023-02-17T00:55:44;98823.67;;;10.46;94.68
56689;BME280;42565;53.342;-1.534;2023-02-17T00:58:13;98825.23;;;11.29;92.17
56689;BME280;42565;53.342;-1.534;2023-02-17T01:00:40;98826.16;;;10.91;93.68
56689;BME280;42565;53.342;-1.534;2023-02-17T01:03:07;98811.04;;;10.69;94.46
56689;BME280;42565;53.342;-1.534;2023-02-17T01:05:40;98819.27;;;10.16;96.82
56689;BME280;42565;53.342;-1.534;2023-02-17T01:08:08;98814.08;;;10.31;97.23
56689;BME280;42565;53.342;-1.534;2023-02-17T01:10:36;98818.79;;;10.12;97.70
56689;BME280;42565;53.342;-1.534;2023-02-17T01:13:03;98817.33;;;10.35;97.04
56689;BME280;42565;53.342;-1.534;2023-02-17T01:15:30;98808.29;;;10.15;97.55
56689;BME280;42565;53.342;-1.534;2023-02-17T01:17:58;98821.18;;;9.92;97.94
56689;BME280;42565;53.342;-1.534;2023-02-17T01:20:25;98823.26;;;10.45;96.78
56689;BME280;42565;53.342;-1.534;2023-02-17T01:22:53;98814.88;;;10.60;95.46
56689;BME280;42565;53.342;-1.534;2023-02-17T01:25:21;98813.50;;;10.75;93.88
56689;BME280;42565;53.342;-1.534;2023-02-17T01:27:47;98794.92;;;10.33;96.01
56689;BME280;42565;53.342;-1.534;2023-02-17T01:30:14;98803.68;;;10.43;95.76
56689;BME280;42565;53.342;-1.534;2023-02-17T01:32:42;98805.27;;;10.03;95.97
56689;BME280;42565;53.342;-1.534;2023-02-17T01:35:08;98800.33;;;10.31;95.72
56689;BME280;42565;53.342;-1.534;2023-02-17T01:37:36;98802.68;;;10.13;96.59
56689;BME280;42565;53.342;-1.534;2023-02-17T01:40:03;98801.03;;;10.00;95.66
56689;BME280;42565;53.342;-1.534;2023-02-17T01:42:30;98804.38;;;10.40;95.75
56689;BME280;42565;53.342;-1.534;2023-02-17T01:46:05;98795.94;;;10.20;95.55
56689;BME280;42565;53.342;-1.534;2023-02-17T01:48:36;98800.05;;;10.23;95.82
56689;BME280;42565;53.342;-1.534;2023-02-17T01:51:07;98795.28;;;10.10;98.12
56689;BME280;42565;53.342;-1.534;2023-02-17T01:53:38;98788.37;;;10.32;95.47
56689;BME280;42565;53.342;-1.534;2023-02-17T01:56:08;98780.85;;;10.26;95.24
56689;BME280;42565;53.342;-1.534;2023-02-17T01:58:38;98794.07;;;10.09;96.29
56689;BME280;42565;53.342;-1.534;2023-02-17T02:01:06;98779.74;;;9.73;99.05
56689;BME280;42565;53.342;-1.534;2023-02-17T02:03:35;98785.70;;;9.48;98.68
56689;BME280;42565;53.342;-1.534;2023-02-17T02:06:06;98785.25;;;9.79;99.24
56689;BME280;42565;53.342;-1.534;2023-02-17T02:08:41;98779.81;;;9.74;97.87
56689;BME280;42565;53.342;-1.534;2023-02-17T02:11:12;98763.38;;;9.96;96.35
56689;BME280;42565;53.342;-1.534;2023-02-17T02:13:38;98777.86;;;10.28;94.62
56689;BME280;42565;53.342;-1.534;2023-02-17T02:16:13;98773.26;;;10.46;93.60
56689;BME280;42565;53.342;-1.534;2023-02-17T02:18:51;98762.12;;;9.90;94.85
56689;BME280;42565;53.342;-1.534;2023-02-17T02:21:50;98753.38;;;9.96;95.72
56689;BME280;42565;53.342;-1.534;2023-02-17T02:24:31;98737.12;;;9.77;94.50
56689;BME280;42565;53.342;-1.534;2023-02-17T02:27:23;98736.62;;;9.67;94.66
56689;BME280;42565;53.342;-1.534;2023-02-17T02:30:14;98745.07;;;9.29;96.32
56689;BME280;42565;53.342;-1.534;2023-02-17T02:32:50;98740.84;;;10.22;93.02
56689;BME280;42565;53.342;-1.534;2023-02-17T02:35:24;98751.02;;;9.86;92.91
56689;BME280;42565;53.342;-1.534;2023-02-17T02:37:59;98746.10;;;9.95;92.26
56689;BME280;42565;53.342;-1.534;2023-02-17T02:40:31;98740.73;;;10.57;89.21
56689;BME280;42565;53.342;-1.534;2023-02-17T02:43:01;98750.33;;;10.56;89.09
56689;BME280;42565;53.342;-1.534;2023-02-17T02:45:29;98749.38;;;10.43;90.55
56689;BME280;42565;53.342;-1.534;2023-02-17T02:47:57;98751.66;;;9.97;90.79
56689;BME280;42565;53.342;-1.534;2023-02-17T02:50:32;98744.63;;;9.59;93.61
56689;BME280;42565;53.342;-1.534;2023-02-17T02:53:22;98759.97;;;9.14;93.87
56689;BME280;42565;53.342;-1.534;2023-02-17T02:55:57;98768.08;;;10.25;91.02
56689;BME280;42565;53.342;-1.534;2023-02-17T02:58:35;98766.69;;;9.67;93.23
56689;BME280;42565;53.342;-1.534;2023-02-17T03:01:08;98765.61;;;10.32;90.28
56689;BME280;42565;53.342;-1.534;2023-02-17T03:03:41;98752.00;;;9.84;92.54
56689;BME280;42565;53.342;-1.534;2023-02-17T03:06:19;98749.98;;;10.05;90.35
56689;BME280;42565;53.342;-1.534;2023-02-17T03:08:51;98734.29;;;9.02;94.46
56689;BME280;42565;53.342;-1.534;2023-02-17T03:11:22;98737.99;;;9.28;93.78
56689;BME280;42565;53.342;-1.534;2023-02-17T03:13:49;98733.63;;;9.06;95.10
56689;BME280;42565;53.342;-1.534;2023-02-17T03:16:16;98735.28;;;9.70;91.89
56689;BME280;42565;53.342;-1.534;2023-02-17T03:18:44;98729.32;;;9.64;92.17
56689;BME280;42565;53.342;-1.534;2023-02-17T03:21:14;98726.59;;;9.60;90.66
56689;BME280;42565;53.342;-1.534;2023-02-17T03:23:42;98724.48;;;10.09;88.47
56689;BME280;42565;53.342;-1.534;2023-02-17T03:26:09;98718.85;;;10.19;89.58
56689;BME280;42565;53.342;-1.534;2023-02-17T03:28:35;98706.16;;;9.97;90.32
56689;BME280;42565;53.342;-1.534;2023-02-17T03:31:03;98708.17;;;9.56;91.96
56689;BME280;42565;53.342;-1.534;2023-02-17T03:33:30;98696.13;;;9.73;91.33
56689;BME280;42565;53.342;-1.534;2023-02-17T03:35:57;98692.29;;;10.03;88.52
56689;BME280;42565;53.342;-1.534;2023-02-17T03:38:24;98682.84;;;9.68;91.07
56689;BME280;42565;53.342;-1.534;2023-02-17T03:40:51;98679.20;;;9.18;93.99
56689;BME280;42565;53.342;-1.534;2023-02-17T03:43:18;98678.51;;;9.12;95.04
56689;BME280;42565;53.342;-1.534;2023-02-17T03:45:45;98676.84;;;9.38;93.20
56689;BME280;42565;53.342;-1.534;2023-02-17T03:48:13;98674.06;;;9.44;93.10
56689;BME280;42565;53.342;-1.534;2023-02-17T03:50:40;98677.01;;;9.17;93.85
56689;BME280;42565;53.342;-1.534;2023-02-17T03:53:07;98661.15;;;9.60;92.53
56689;BME280;42565;53.342;-1.534;2023-02-17T03:55:36;98670.07;;;9.08;92.68
56689;BME280;42565;53.342;-1.534;2023-02-17T03:58:03;98646.64;;;8.99;93.81
56689;BME280;42565;53.342;-1.534;2023-02-17T04:00:30;98658.46;;;9.23;94.04
56689;BME280;42565;53.342;-1.534;2023-02-17T04:02:58;98661.34;;;9.24;94.99
56689;BME280;42565;53.342;-1.534;2023-02-17T04:05:25;98663.73;;;9.47;93.59
56689;BME280;42565;53.342;-1.534;2023-02-17T04:07:52;98651.97;;;9.35;93.84
56689;BME280;42565;53.342;-1.534;2023-02-17T04:10:20;98663.01;;;9.33;92.79
56689;BME280;42565;53.342;-1.534;2023-02-17T04:12:47;98661.07;;;9.46;92.74
56689;BME280;42565;53.342;-1.534;2023-02-17T04:15:14;98664.27;;;9.59;92.60
56689;BME280;42565;53.342;-1.534;2023-02-17T04:17:40;98652.32;;;9.99;90.85
56689;BME280;42565;53.342;-1.534;2023-02-17T04:20:08;98664.15;;;9.44;91.44
56689;BME280;42565;53.342;-1.534;2023-02-17T04:22:35;98660.43;;;9.86;89.66
56689;BME280;42565;53.342;-1.534;2023-02-17T04:25:02;98651.00;;;9.89;88.17
56689;BME280;42565;53.342;-1.534;2023-02-17T04:27:30;98645.95;;;9.53;90.41
56689;BME280;42565;53.342;-1.534;2023-02-17T04:29:56;98640.35;;;9.75;92.16
56689;BME280;42565;53.342;-1.534;2023-02-17T04:32:23;98640.22;;;9.05;91.78
56689;BME280;42565;53.342;-1.534;2023-02-17T04:34:50;98639.40;;;9.40;90.70
56689;BME280;42565;53.342;-1.534;2023-02-17T04:37:17;98644.81;;;9.67;91.24
56689;BME280;42565;53.342;-1.534;2023-02-17T04:39:43;98631.07;;;9.84;88.99
56689;BME280;42565;53.342;-1.534;2023-02-17T04:42:11;98630.91;;;10.03;87.94
56689;BME280;42565;53.342;-1.534;2023-02-17T04:44:38;98636.91;;;10.34;87.09
56689;BME280;42565;53.342;-1.534;2023-02-17T04:47:05;98624.23;;;10.37;86.70
56689;BME280;42565;53.342;-1.534;2023-02-17T04:49:32;98621.82;;;10.65;86.66
56689;BME280;42565;53.342;-1.534;2023-02-17T04:51:59;98621.34;;;10.38;88.32
56689;BME280;42565;53.342;-1.534;2023-02-17T04:54:26;98612.03;;;9.58;90.08
56689;BME280;42565;53.342;-1.534;2023-02-17T04:56:53;98610.57;;;9.82;89.53
56689;BME280;42565;53.342;-1.534;2023-02-17T04:59:20;98612.69;;;10.76;86.96
56689;BME280;42565;53.342;-1.534;2023-02-17T05:01:47;98608.03;;;10.03;87.82
56689;BME280;42565;53.342;-1.534;2023-02-17T05:04:14;98610.57;;;10.59;89.17
56689;BME280;42565;53.342;-1.534;2023-02-17T05:06:41;98599.19;;;10.06;88.84
56689;BME280;42565;53.342;-1.534;2023-02-17T05:09:09;98587.67;;;10.20;90.77
56689;BME280;42565;53.342;-1.534;2023-02-17T05:11:36;98588.74;;;10.33;90.07
56689;BME280;42565;53.342;-1.534;2023-02-17T05:14:03;98587.16;;;10.09;89.76
56689;BME280;42565;53.342;-1.534;2023-02-17T05:16:29;98571.70;;;9.85;90.45
56689;BME280;42565;53.342;-1.534;2023-02-17T05:18:56;98579.64;;;10.12;91.71
56689;BME280;42565;53.342;-1.534;2023-02-17T05:21:23;98587.32;;;9.45;93.73
56689;BME280;42565;53.342;-1.534;2023-02-17T05:23:50;98588.29;;;9.88;93.07
56689;BME280;42565;53.342;-1.534;2023-02-17T05:26:17;98581.88;;;9.77;91.97
56689;BME280;42565;53.342;-1.534;2023-02-17T05:28:44;98589.41;;;9.85;90.52
56689;BME280;42565;53.342;-1.534;2023-02-17T05:31:12;98598.91;;;10.21;89.76
56689;BME280;42565;53.342;-1.534;2023-02-17T05:33:39;98594.42;;;10.31;88.70
56689;BME280;42565;53.342;-1.534;2023-02-17T05:36:08;98600.28;;;10.43;90.61
56689;BME280;42565;53.342;-1.534;2023-02-17T05:38:38;98611.99;;;10.02;90.29
56689;BME280;42565;53.342;-1.534;2023-02-17T05:41:05;98614.68;;;9.35;92.94
56689;BME280;42565;53.342;-1.534;2023-02-17T05:43:32;98620.76;;;10.07;91.06
56689;BME280;42565;53.342;-1.534;2023-02-17T05:46:01;98626.89;;;10.71;87.74
56689;BME280;42565;53.342;-1.534;2023-02-17T05:48:28;98634.30;;;10.31;87.93
56689;BME280;42565;53.342;-1.534;2023-02-17T05:50:56;98619.58;;;10.12;89.71
56689;BME280;42565;53.342;-1.534;2023-02-17T05:53:23;98632.91;;;10.44;87.26
56689;BME280;42565;53.342;-1.534;2023-02-17T05:55:51;98625.60;;;10.95;85.51
56689;BME280;42565;53.342;-1.534;2023-02-17T05:58:18;98617.53;;;10.25;88.64
56689;BME280;42565;53.342;-1.534;2023-02-17T06:00:45;98630.20;;;10.19;89.27
56689;BME280;42565;53.342;-1.534;2023-02-17T06:03:13;98637.53;;;10.23;90.07
56689;BME280;42565;53.342;-1.534;2023-02-17T06:05:40;98619.22;;;10.19;90.56
56689;BME280;42565;53.342;-1.534;2023-02-17T06:08:08;98634.01;;;10.08;92.93
56689;BME280;42565;53.342;-1.534;2023-02-17T06:10:34;98637.46;;;9.86;92.81
56689;BME280;42565;53.342;-1.534;2023-02-17T06:13:02;98613.16;;;9.62;95.49
56689;BME280;42565;53.342;-1.534;2023-02-17T06:15:29;98622.33;;;9.83;94.50
56689;BME280;42565;53.342;-1.534;2023-02-17T06:17:57;98614.62;;;10.43;90.09
56689;BME280;42565;53.342;-1.534;2023-02-17T06:20:24;98613.54;;;9.75;93.32
56689;BME280;42565;53.342;-1.534;2023-02-17T06:22:50;98599.09;;;9.93;91.75
56689;BME280;42565;53.342;-1.534;2023-02-17T06:25:17;98591.99;;;9.32;92.45
56689;BME280;42565;53.342;-1.534;2023-02-17T06:27:45;98605.94;;;9.79;93.60
56689;BME280;42565;53.342;-1.534;2023-02-17T06:30:13;98610.73;;;9.81;92.52
56689;BME280;42565;53.342;-1.534;2023-02-17T06:32:40;98599.62;;;9.76;92.41
56689;BME280;42565;53.342;-1.534;2023-02-17T06:35:07;98594.87;;;9.69;92.50
56689;BME280;42565;53.342;-1.534;2023-02-17T06:37:35;98602.16;;;9.83;92.91
56689;BME280;42565;53.342;-1.534;2023-02-17T06:40:02;98591.95;;;9.95;93.46
56689;BME280;42565;53.342;-1.534;2023-02-17T06:42:30;98601.35;;;9.90;92.33
56689;BME280;42565;53.342;-1.534;2023-02-17T06:44:57;98603.21;;;9.23;95.45
56689;BME280;42565;53.342;-1.534;2023-02-17T06:47:24;98591.51;;;9.51;93.59
56689;BME280;42565;53.342;-1.534;2023-02-17T06:49:51;98587.59;;;10.23;92.78
56689;BME280;42565;53.342;-1.534;2023-02-17T06:52:18;98579.56;;;9.91;93.11
56689;BME280;42565;53.342;-1.534;2023-02-17T06:54:46;98563.63;;;10.41;90.88
56689;BME280;42565;53.342;-1.534;2023-02-17T06:57:12;98561.05;;;9.91;93.23
56689;BME280;42565;53.342;-1.534;2023-02-17T06:59:39;98556.10;;;9.50;95.85
56689;BME280;42565;53.342;-1.534;2023-02-17T07:02:08;98560.60;;;9.40;97.68
56689;BME280;42565;53.342;-1.534;2023-02-17T07:04:35;98536.59;;;9.66;94.94
56689;BME280;42565;53.342;-1.534;2023-02-17T07:07:02;98542.67;;;9.76;96.50
56689;BME280;42565;53.342;-1.534;2023-02-17T07:09:28;98527.99;;;9.74;94.14
56689;BME280;42565;53.342;-1.534;2023-02-17T07:11:56;98545.59;;;10.05;92.87
56689;BME280;42565;53.342;-1.534;2023-02-17T07:14:24;98548.86;;;10.61;89.90
56689;BME280;42565;53.342;-1.534;2023-02-17T07:16:51;98551.45;;;11.17;88.25
56689;BME280;42565;53.342;-1.534;2023-02-17T07:19:18;98555.39;;;10.14;92.43
56689;BME280;42565;53.342;-1.534;2023-02-17T07:21:46;98573.41;;;9.57;96.39
56689;BME280;42565;53.342;-1.534;2023-02-17T07:24:13;98580.69;;;9.91;93.99
56689;BME280;42565;53.342;-1.534;2023-02-17T07:26:41;98578.14;;;9.57;96.49
56689;BME280;42565;53.342;-1.534;2023-02-17T07:29:09;98554.87;;;9.56;97.09
56689;BME280;42565;53.342;-1.534;2023-02-17T07:31:36;98566.76;;;10.02;96.44
56689;BME280;42565;53.342;-1.534;2023-02-17T07:34:04;98554.38;;;9.80;94.71
56689;BME280;42565;53.342;-1.534;2023-02-17T07:36:31;98545.39;;;9.57;96.00
56689;BME280;42565;53.342;-1.534;2023-02-17T07:38:59;98539.07;;;9.87;94.69
56689;BME280;42565;53.342;-1.534;2023-02-17T07:41:25;98539.51;;;9.93;94.88
56689;BME280;42565;53.342;-1.534;2023-02-17T07:43:54;98535.72;;;9.53;98.97
56689;BME280;42565;53.342;-1.534;2023-02-17T07:46:23;98550.29;;;9.73;97.41
56689;BME280;42565;53.342;-1.534;2023-02-17T07:48:50;98543.63;;;9.85;96.38
56689;BME280;42565;53.342;-1.534;2023-02-17T07:51:18;98542.40;;;9.40;98.29
56689;BME280;42565;53.342;-1.534;2023-02-17T07:53:46;98521.56;;;9.26;99.50
56689;BME280;42565;53.342;-1.534;2023-02-17T07:56:16;98516.00;;;9.19;100.00
56689;BME280;42565;53.342;-1.534;2023-02-17T07:58:44;98506.51;;;9.10;100.00
56689;BME280;42565;53.342;-1.534;2023-02-17T08:01:13;98522.59;;;9.22;100.00
56689;BME280;42565;53.342;-1.534;2023-02-17T08:03:41;98490.21;;;8.92;100.00
56689;BME280;42565;53.342;-1.534;2023-02-17T08:06:09;98507.83;;;9.17;100.00
56689;BME280;42565;53.342;-1.534;2023-02-17T08:08:37;98528.00;;;9.52;98.55
56689;BME280;42565;53.342;-1.534;2023-02-17T08:11:04;98528.35;;;9.33;98.05
56689;BME280;42565;53.342;-1.534;2023-02-17T08:13:31;98518.28;;;9.78;95.87
56689;BME280;42565;53.342;-1.534;2023-02-17T08:15:59;98528.42;;;9.31;98.49
56689;BME280;42565;53.342;-1.534;2023-02-17T08:18:25;98508.46;;;9.47;96.27
56689;BME280;42565;53.342;-1.534;2023-02-17T08:20:52;98507.71;;;9.31;96.98
56689;BME280;42565;53.342;-1.534;2023-02-17T08:23:20;98493.45;;;9.19;99.20
56689;BME280;42565;53.342;-1.534;2023-02-17T08:25:47;98523.89;;;9.06;98.53
56689;BME280;42565;53.342;-1.534;2023-02-17T08:28:14;98522.23;;;9.28;97.34
56689;BME280;42565;53.342;-1.534;2023-02-17T08:30:41;98502.27;;;8.77;98.33
56689;BME280;42565;53.342;-1.534;2023-02-17T08:33:08;98493.65;;;8.67;98.36
56689;BME280;42565;53.342;-1.534;2023-02-17T08:35:35;98486.30;;;9.17;96.70
56689;BME280;42565;53.342;-1.534;2023-02-17T08:38:01;98471.89;;;9.48;94.49
56689;BME280;42565;53.342;-1.534;2023-02-17T08:40:29;98496.75;;;9.16;93.80
56689;BME280;42565;53.342;-1.534;2023-02-17T08:42:56;98490.13;;;9.17;92.83
56689;BME280;42565;53.342;-1.534;2023-02-17T08:45:23;98454.59;;;9.17;92.15
56689;BME280;42565;53.342;-1.534;2023-02-17T08:47:50;98477.85;;;9.70;90.35
56689;BME280;42565;53.342;-1.534;2023-02-17T08:50:17;98468.59;;;9.88;89.66
56689;BME280;42565;53.342;-1.534;2023-02-17T08:52:44;98454.28;;;9.43;89.25
56689;BME280;42565;53.342;-1.534;2023-02-17T08:55:12;98431.54;;;9.48;88.05
56689;BME280;42565;53.342;-1.534;2023-02-17T08:57:39;98445.86;;;9.40;86.28
56689;BME280;42565;53.342;-1.534;2023-02-17T09:00:08;98439.62;;;9.55;87.12
56689;BME280;42565;53.342;-1.534;2023-02-17T09:02:36;98471.75;;;9.13;87.99
56689;BME280;42565;53.342;-1.534;2023-02-17T09:05:04;98450.01;;;9.52;87.10
56689;BME280;42565;53.342;-1.534;2023-02-17T09:07:32;98431.51;;;9.68;84.60
56689;BME280;42565;53.342;-1.534;2023-02-17T09:09:59;98434.09;;;10.04;83.11
56689;BME280;42565;53.342;-1.534;2023-02-17T09:12:27;98443.72;;;9.66;82.37
56689;BME280;42565;53.342;-1.534;2023-02-17T09:14:54;98432.02;;;9.96;82.85
56689;BME280;42565;53.342;-1.534;2023-02-17T09:17:22;98427.78;;;10.03;82.14
56689;BME280;42565;53.342;-1.534;2023-02-17T09:19:50;98447.28;;;10.36;80.45
56689;BME280;42565;53.342;-1.534;2023-02-17T09:22:17;98425.82;;;10.60;78.87
56689;BME280;42565;53.342;-1.534;2023-02-17T09:24:45;98430.83;;;11.00;77.23
56689;BME280;42565;53.342;-1.534;2023-02-17T09:27:12;98440.99;;;10.92;75.38
56689;BME280;42565;53.342;-1.534;2023-02-17T09:29:39;98404.84;;;11.04;75.34
56689;BME280;42565;53.342;-1.534;2023-02-17T09:32:08;98404.25;;;10.97;75.17
56689;BME280;42565;53.342;-1.534;2023-02-17T09:34:36;98441.13;;;10.82;75.87
56689;BME280;42565;53.342;-1.534;2023-02-17T09:37:09;98416.58;;;10.66;74.83
56689;BME280;42565;53.342;-1.534;2023-02-17T09:39:36;98425.53;;;10.24;75.50
56689;BME280;42565;53.342;-1.534;2023-02-17T09:42:04;98440.57;;;10.41;76.95
56689;BME280;42565;53.342;-1.534;2023-02-17T09:44:38;98438.43;;;10.37;75.40
56689;BME280;42565;53.342;-1.534;2023-02-17T09:47:12;98428.76;;;10.16;78.02
56689;BME280;42565;53.342;-1.534;2023-02-17T09:49:44;98458.33;;;10.11;77.51
56689;BME280;42565;53.342;-1.534;2023-02-17T09:52:15;98444.93;;;10.23;76.87
56689;BME280;42565;53.342;-1.534;2023-02-17T09:54:54;98464.21;;;10.76;75.15
56689;BME280;42565;53.342;-1.534;2023-02-17T09:57:27;98467.77;;;10.76;74.57
56689;BME280;42565;53.342;-1.534;2023-02-17T09:59:57;98463.52;;;10.83;75.07
56689;BME280;42565;53.342;-1.534;2023-02-17T10:02:33;98471.33;;;10.62;75.83
56689;BME280;42565;53.342;-1.534;2023-02-17T10:05:06;98459.60;;;10.53;76.10
56689;BME280;42565;53.342;-1.534;2023-02-17T10:07:40;98483.48;;;9.99;78.36
56689;BME280;42565;53.342;-1.534;2023-02-17T10:10:12;98496.45;;;10.26;77.87
56689;BME280;42565;53.342;-1.534;2023-02-17T10:12:45;98511.68;;;10.56;76.74
56689;BME280;42565;53.342;-1.534;2023-02-17T10:15:15;98512.10;;;10.41;76.00
56689;BME280;42565;53.342;-1.534;2023-02-17T10:17:47;98505.62;;;10.21;77.66
56689;BME280;42565;53.342;-1.534;2023-02-17T10:20:19;98521.19;;;10.78;75.54
56689;BME280;42565;53.342;-1.534;2023-02-17T10:22:53;98539.27;;;10.79;73.37
56689;BME280;42565;53.342;-1.534;2023-02-17T10:25:27;98516.99;;;11.16;72.74
56689;BME280;42565;53.342;-1.534;2023-02-17T10:28:03;98533.31;;;10.51;73.90
56689;BME280;42565;53.342;-1.534;2023-02-17T10:30:39;98536.08;;;10.63;73.18
56689;BME280;42565;53.342;-1.534;2023-02-17T10:33:15;98549.09;;;10.81;73.42
56689;BME280;42565;53.342;-1.534;2023-02-17T10:35:50;98573.42;;;10.51;71.64
56689;BME280;42565;53.342;-1.534;2023-02-17T10:38:33;98596.66;;;10.98;72.14
56689;BME280;42565;53.342;-1.534;2023-02-17T10:41:04;98607.25;;;10.29;74.46
56689;BME280;42565;53.342;-1.534;2023-02-17T10:43:35;98600.12;;;10.59;74.92
56689;BME280;42565;53.342;-1.534;2023-02-17T10:46:05;98614.98;;;10.36;72.96
56689;BME280;42565;53.342;-1.534;2023-02-17T10:48:37;98640.10;;;10.71;73.67
56689;BME280;42565;53.342;-1.534;2023-02-17T10:51:06;98661.07;;;10.76;72.93
56689;BME280;42565;53.342;-1.534;2023-02-17T10:53:37;98662.60;;;11.11;71.78
56689;BME280;42565;53.342;-1.534;2023-02-17T10:56:08;98660.32;;;11.48;69.62
56689;BME280;42565;53.342;-1.534;2023-02-17T10:58:40;98690.00;;;10.98;71.88
56689;BME280;42565;53.342;-1.534;2023-02-17T11:01:15;98681.47;;;11.13;70.68
56689;BME280;42565;53.342;-1.534;2023-02-17T11:03:43;98699.52;;;11.73;68.19
56689;BME280;42565;53.342;-1.534;2023-02-17T11:06:17;98707.78;;;10.84;70.13
56689;BME280;42565;53.342;-1.534;2023-02-17T11:08:48;98699.78;;;11.01;70.62
56689;BME280;42565;53.342;-1.534;2023-02-17T11:11:18;98734.23;;;11.10;70.59
56689;BME280;42565;53.342;-1.534;2023-02-17T11:14:00;98738.91;;;11.62;68.18
56689;BME280;42565;53.342;-1.534;2023-02-17T11:16:35;98763.51;;;11.81;68.60
56689;BME280;42565;53.342;-1.534;2023-02-17T11:19:03;98807.30;;;12.24;66.34
56689;BME280;42565;53.342;-1.534;2023-02-17T11:21:31;98807.69;;;12.23;66.47
56689;BME280;42565;53.342;-1.534;2023-02-17T11:24:00;98851.53;;;12.23;67.42
56689;BME280;42565;53.342;-1.534;2023-02-17T11:26:30;98856.05;;;12.19;65.42
56689;BME280;42565;53.342;-1.534;2023-02-17T11:29:08;98871.27;;;11.78;65.70
56689;BME280;42565;53.342;-1.534;2023-02-17T11:31:36;98883.96;;;11.32;67.19
56689;BME280;42565;53.342;-1.534;2023-02-17T11:34:13;98913.35;;;12.24;65.60
56689;BME280;42565;53.342;-1.534;2023-02-17T11:36:43;98923.14;;;12.28;64.73
56689;BME280;42565;53.342;-1.534;2023-02-17T11:39:20;98924.71;;;12.93;63.06
56689;BME280;42565;53.342;-1.534;2023-02-17T11:41:48;98937.52;;;12.88;63.87
56689;BME280;42565;53.342;-1.534;2023-02-17T11:44:23;98949.91;;;13.43;61.79
56689;BME280;42565;53.342;-1.534;2023-02-17T11:46:58;98961.67;;;13.00;62.31
56689;BME280;42565;53.342;-1.534;2023-02-17T11:49:49;98970.35;;;12.58;64.54
56689;BME280;42565;53.342;-1.534;2023-02-17T11:52:30;98981.79;;;13.16;62.29
56689;BME280;42565;53.342;-1.534;2023-02-17T11:55:20;99001.09;;;13.31;62.58
56689;BME280;42565;53.342;-1.534;2023-02-17T11:58:01;99004.39;;;12.63;63.74
56689;BME280;42565;53.342;-1.534;2023-02-17T12:00:39;99008.40;;;12.29;64.36
56689;BME280;42565;53.342;-1.534;2023-02-17T12:03:26;99001.36;;;11.93;65.47
56689;BME280;42565;53.342;-1.534;2023-02-17T12:06:06;99028.35;;;12.25;66.01
56689;BME280;42565;53.342;-1.534;2023-02-17T12:08:43;99042.92;;;11.74;67.77
56689;BME280;42565;53.342;-1.534;2023-02-17T12:11:19;99050.19;;;12.08;67.44
56689;BME280;42565;53.342;-1.534;2023-02-17T12:13:58;99053.47;;;11.66;67.31
56689;BME280;42565;53.342;-1.534;2023-02-17T12:16:39;99069.36;;;11.13;70.91
56689;BME280;42565;53.342;-1.534;2023-02-17T12:19:22;99088.04;;;12.06;69.59
56689;BME280;42565;53.342;-1.534;2023-02-17T12:22:00;99097.65;;;11.78;70.03
56689;BME280;42565;53.342;-1.534;2023-02-17T12:24:41;99112.03;;;11.54;68.99
56689;BME280;42565;53.342;-1.534;2023-02-17T12:27:22;99124.24;;;11.94;67.85
56689;BME280;42565;53.342;-1.534;2023-02-17T12:30:03;99134.33;;;12.00;66.97
56689;BME280;42565;53.342;-1.534;2023-02-17T12:32:42;99134.31;;;11.37;67.93
56689;BME280;42565;53.342;-1.534;2023-02-17T12:35:16;99136.76;;;11.91;65.63
56689;BME280;42565;53.342;-1.534;2023-02-17T12:37:49;99151.36;;;11.16;67.94
56689;BME280;42565;53.342;-1.534;2023-02-17T12:40:30;99153.62;;;10.93;68.08
56689;BME280;42565;53.342;-1.534;2023-02-17T12:43:00;99161.25;;;11.24;66.95
56689;BME280;42565;53.342;-1.534;2023-02-17T12:45:35;99148.94;;;11.62;64.70
56689;BME280;42565;53.342;-1.534;2023-02-17T12:48:08;99150.82;;;11.92;63.52
56689;BME280;42565;53.342;-1.534;2023-02-17T12:50:46;99152.24;;;11.60;64.95
56689;BME280;42565;53.342;-1.534;2023-02-17T12:53:24;99151.96;;;11.67;64.44
56689;BME280;42565;53.342;-1.534;2023-02-17T12:55:56;99147.01;;;11.20;65.47
56689;BME280;42565;53.342;-1.534;2023-02-17T12:58:25;99169.54;;;11.07;66.58
56689;BME280;42565;53.342;-1.534;2023-02-17T13:00:58;99164.37;;;10.90;66.12
56689;BME280;42565;53.342;-1.534;2023-02-17T13:03:29;99163.78;;;10.90;66.28
56689;BME280;42565;53.342;-1.534;2023-02-17T13:06:01;99162.03;;;10.28;66.83
56689;BME280;42565;53.342;-1.534;2023-02-17T13:08:38;99173.57;;;10.71;65.74
56689;BME280;42565;53.342;-1.534;2023-02-17T13:11:12;99184.57;;;10.83;65.77